createdAt,value
2023-04-27T00:01:17.196Z,101994.22
2023-04-27T00:03:45.939Z,101987.16
2023-04-27T00:06:13.942Z,101990.06
2023-04-27T00:08:42.044Z,101991.06
2023-04-27T00:11:09.814Z,101995.63
2023-04-27T00:13:38.989Z,101999.31
2023-04-27T00:16:07.359Z,101993.28
2023-04-27T00:18:35.260Z,101990.59
2023-04-27T00:21:02.979Z,101990.78
2023-04-27T00:23:30.686Z,101992.00
2023-04-27T00:25:58.404Z,101998.38
2023-04-27T00:28:26.236Z,101995.06
2023-04-27T00:30:55.454Z,101997.94
2023-04-27T00:33:23.153Z,101997.09
2023-04-27T00:35:50.988Z,102008.03
2023-04-27T00:38:18.749Z,101992.13
2023-04-27T00:40:46.512Z,101995.81
2023-04-27T00:43:14.215Z,101996.00
2023-04-27T00:45:43.831Z,101990.00
2023-04-27T00:48:13.523Z,101992.88
2023-04-27T00:50:41.297Z,101997.41
2023-04-27T00:53:09.427Z,101992.44
2023-04-27T00:55:37.346Z,101999.66
2023-04-27T00:58:05.140Z,101988.06
2023-04-27T01:00:33.090Z,101999.84
2023-04-27T01:03:01.490Z,101997.53
2023-04-27T01:05:32.564Z,101994.00
2023-04-27T01:08:00.500Z,101996.50
2023-04-27T01:10:28.522Z,101995.03
2023-04-27T01:12:57.513Z,101989.66
2023-04-27T01:15:25.185Z,101996.06
2023-04-27T01:17:58.973Z,101993.56
2023-04-27T01:20:30.140Z,101997.44
2023-04-27T01:23:00.524Z,101995.97
2023-04-27T01:25:29.592Z,102002.19
2023-04-27T01:27:57.368Z,101998.66
2023-04-27T01:30:25.095Z,102001.34
2023-04-27T01:32:52.866Z,101997.00
2023-04-27T01:35:20.868Z,101998.03
2023-04-27T01:37:48.621Z,101980.44
2023-04-27T01:40:16.686Z,101991.81
2023-04-27T01:42:45.840Z,101996.34
2023-04-27T01:45:13.607Z,101988.50
2023-04-27T01:47:41.462Z,101994.03
2023-04-27T01:50:10.050Z,101992.38
2023-04-27T01:52:37.887Z,101987.19
2023-04-27T01:55:06.351Z,101987.19
2023-04-27T01:57:34.069Z,101982.66
2023-04-27T02:00:03.198Z,101984.72
2023-04-27T02:02:30.976Z,101983.03
2023-04-27T02:04:58.749Z,101982.03
2023-04-27T02:07:27.280Z,101980.53
2023-04-27T02:09:55.457Z,101979.06
2023-04-27T02:12:23.173Z,101981.94
2023-04-27T02:14:51.158Z,101975.94
2023-04-27T02:17:20.190Z,101977.97
2023-04-27T02:19:47.916Z,101983.34
2023-04-27T02:22:16.249Z,101977.31
2023-04-27T02:24:44.000Z,101974.66
2023-04-27T02:27:11.847Z,101965.94
2023-04-27T02:29:40.018Z,101963.44
2023-04-27T02:32:08.264Z,101962.63
2023-04-27T02:34:37.378Z,101960.94
2023-04-27T02:37:05.043Z,101963.00
2023-04-27T02:39:32.719Z,101965.03
2023-04-27T02:42:00.460Z,101956.16
2023-04-27T02:44:28.199Z,101958.84
2023-04-27T02:46:55.924Z,101965.22
2023-04-27T02:49:23.669Z,101965.41
2023-04-27T02:51:52.775Z,101962.91
2023-04-27T02:54:20.533Z,101967.25
2023-04-27T02:56:48.240Z,101976.31
2023-04-27T02:59:16.186Z,101972.16
2023-04-27T03:01:44.131Z,101966.16
2023-04-27T03:04:14.170Z,101970.69
2023-04-27T03:06:42.190Z,101965.50
2023-04-27T03:09:11.509Z,101958.66
2023-04-27T03:11:39.490Z,101959.50
2023-04-27T03:14:07.277Z,101948.41
2023-04-27T03:16:35.461Z,101958.19
2023-04-27T03:19:03.817Z,101956.34
2023-04-27T03:21:32.048Z,101955.72
2023-04-27T03:23:59.792Z,101946.09
2023-04-27T03:26:28.932Z,101957.56
2023-04-27T03:28:56.657Z,101966.63
2023-04-27T03:31:24.442Z,101967.44
2023-04-27T03:33:52.146Z,101971.34
2023-04-27T03:36:19.910Z,101970.50
2023-04-27T03:38:47.567Z,101973.38
2023-04-27T03:41:15.409Z,101971.53
2023-04-27T03:43:44.459Z,101985.97
2023-04-27T03:46:12.221Z,101979.13
2023-04-27T03:48:40.128Z,101979.13
2023-04-27T03:51:08.309Z,101975.78
2023-04-27T03:53:36.275Z,101974.78
2023-04-27T03:56:04.317Z,101976.81
2023-04-27T03:58:31.992Z,101976.97
2023-04-27T04:01:01.404Z,101978.84
2023-04-27T04:03:29.233Z,101982.53
2023-04-27T04:05:57.035Z,101983.75
2023-04-27T04:08:24.719Z,101978.56
2023-04-27T04:10:52.456Z,101974.41
2023-04-27T04:13:20.187Z,101970.03
2023-04-27T04:15:47.893Z,101968.47
2023-04-27T04:18:16.913Z,101980.31
2023-04-27T04:20:44.623Z,101975.31
2023-04-27T04:23:12.284Z,101977.81
2023-04-27T04:25:40.391Z,101988.53
2023-04-27T04:28:08.264Z,101989.75
2023-04-27T04:30:35.946Z,101986.41
2023-04-27T04:33:03.903Z,101987.25
2023-04-27T04:35:33.095Z,101982.97
2023-04-27T04:38:00.823Z,101999.16
2023-04-27T04:40:29.064Z,102003.69
2023-04-27T04:42:56.779Z,102005.53
2023-04-27T04:45:24.495Z,102001.28
2023-04-27T04:47:54.404Z,102019.97
2023-04-27T04:50:23.277Z,102018.47
2023-04-27T04:52:52.987Z,102014.13
2023-04-27T04:55:20.877Z,102010.81
2023-04-27T04:57:48.584Z,102016.16
2023-04-27T05:00:16.648Z,101998.50
2023-04-27T05:02:44.545Z,102020.88
2023-04-27T05:05:12.346Z,102018.19
2023-04-27T05:07:40.828Z,102017.34
2023-04-27T05:10:10.443Z,102017.53
2023-04-27T05:12:38.268Z,102014.84
2023-04-27T05:15:07.199Z,102018.25
2023-04-27T05:17:34.927Z,102026.59
2023-04-27T05:20:02.946Z,102024.09
2023-04-27T05:22:30.646Z,102032.16
2023-04-27T05:24:59.023Z,102022.63
2023-04-27T05:27:28.203Z,102025.75
2023-04-27T05:29:56.039Z,102028.25
2023-04-27T05:32:23.875Z,102033.81
2023-04-27T05:34:52.882Z,102038.81
2023-04-27T05:37:20.575Z,102034.09
2023-04-27T05:39:48.244Z,102033.25
2023-04-27T05:42:15.986Z,102039.63
2023-04-27T05:44:45.052Z,102040.47
2023-04-27T05:47:12.786Z,102032.63
2023-04-27T05:49:41.469Z,102039.81
2023-04-27T05:52:09.180Z,102047.03
2023-04-27T05:54:36.911Z,102040.84
2023-04-27T05:57:04.802Z,102051.56
2023-04-27T05:59:32.575Z,102053.22
2023-04-27T06:02:01.712Z,102040.66
2023-04-27T06:04:29.859Z,102042.97
2023-04-27T06:06:58.002Z,102044.28
2023-04-27T06:09:26.080Z,102044.75
2023-04-27T06:11:53.762Z,102047.06
2023-04-27T06:14:21.488Z,102051.03
2023-04-27T06:16:49.181Z,102043.66
2023-04-27T06:19:18.288Z,102040.44
2023-04-27T06:21:46.448Z,102033.03
2023-04-27T06:24:14.209Z,102022.84
2023-04-27T06:26:41.937Z,102028.13
2023-04-27T06:29:09.682Z,102027.75
2023-04-27T06:31:37.494Z,102028.59
2023-04-27T06:34:05.487Z,102033.59
2023-04-27T06:36:34.653Z,102037.56
2023-04-27T06:39:02.469Z,102042.75
2023-04-27T06:41:30.198Z,102048.78
2023-04-27T06:43:59.032Z,102046.56
2023-04-27T06:46:27.472Z,102039.34
2023-04-27T06:48:55.322Z,102043.88
2023-04-27T06:51:23.023Z,102040.16
2023-04-27T06:53:52.116Z,102040.44
2023-04-27T06:56:19.853Z,102035.72
2023-04-27T06:58:47.813Z,102043.41
2023-04-27T07:01:15.562Z,102047.56
2023-04-27T07:03:43.383Z,102043.03
2023-04-27T07:06:11.654Z,102039.34
2023-04-27T07:08:39.393Z,102040.16
2023-04-27T07:11:08.484Z,102033.78
2023-04-27T07:13:36.460Z,102031.94
2023-04-27T07:16:04.260Z,102027.22
2023-04-27T07:18:32.014Z,102023.50
2023-04-27T07:20:59.749Z,102026.84
2023-04-27T07:23:27.448Z,102034.72
2023-04-27T07:25:55.184Z,102034.53
2023-04-27T07:28:24.267Z,102036.19
2023-04-27T07:30:52.120Z,102038.03
2023-04-27T07:33:19.922Z,102033.50
2023-04-27T07:35:47.618Z,102037.03
2023-04-27T07:38:17.380Z,102043.03
2023-04-27T07:40:45.387Z,102040.53
2023-04-27T07:43:13.192Z,102032.66
2023-04-27T07:45:42.488Z,102037.84
2023-04-27T07:48:10.511Z,102027.13
2023-04-27T07:50:38.275Z,102037.66
2023-04-27T07:53:06.211Z,102029.44
2023-04-27T07:55:33.977Z,102035.06
2023-04-27T07:58:01.710Z,102022.66
2023-04-27T08:00:29.483Z,102029.06
2023-04-27T08:02:58.833Z,102025.53
2023-04-27T08:05:27.087Z,102019.97
2023-04-27T08:07:55.186Z,102026.34
2023-04-27T08:10:23.471Z,102024.72
2023-04-27T08:12:51.548Z,102026.91
2023-04-27T08:15:19.381Z,102021.94
2023-04-27T08:17:47.347Z,102028.81
2023-04-27T08:20:16.800Z,102030.25
2023-04-27T08:22:45.043Z,102031.66
2023-04-27T08:25:12.813Z,102020.16
2023-04-27T08:27:41.246Z,102023.56
2023-04-27T08:30:09.976Z,102015.06
2023-04-27T08:32:37.767Z,102003.44
2023-04-27T08:35:06.116Z,101997.75
2023-04-27T08:37:35.218Z,101992.72
2023-04-27T08:40:06.127Z,101989.69
2023-04-27T08:42:33.903Z,101991.03
2023-04-27T08:45:01.683Z,101990.94
2023-04-27T08:47:41.937Z,101988.19
2023-04-27T08:50:12.377Z,102000.94
2023-04-27T08:52:41.618Z,101990.97
2023-04-27T08:55:10.051Z,101995.69
2023-04-27T08:57:37.776Z,101997.38
2023-04-27T09:00:13.362Z,101993.22
2023-04-27T09:02:50.871Z,101996.72
2023-04-27T09:05:19.425Z,101996.72
2023-04-27T09:08:05.216Z,101992.19
2023-04-27T09:10:44.960Z,101986.81
2023-04-27T09:13:12.650Z,101988.47
2023-04-27T09:15:47.761Z,102001.53
2023-04-27T09:18:18.218Z,101981.03
2023-04-27T09:20:47.258Z,101983.91
2023-04-27T09:23:28.656Z,101984.56
2023-04-27T09:25:57.088Z,101983.16
2023-04-27T09:28:27.548Z,101985.63
2023-04-27T09:30:56.467Z,101986.28
2023-04-27T09:33:25.113Z,101982.38
2023-04-27T09:35:53.101Z,101975.13
2023-04-27T09:38:21.800Z,101980.97
2023-04-27T09:40:51.942Z,101974.53
2023-04-27T09:43:19.720Z,101980.91
2023-04-27T09:45:47.939Z,101969.31
2023-04-27T09:48:15.689Z,101970.38
2023-04-27T09:50:46.960Z,101965.41
2023-04-27T09:53:17.050Z,101966.44
2023-04-27T09:55:56.026Z,101967.06
2023-04-27T09:58:47.678Z,101962.50
2023-04-27T10:01:25.400Z,101966.47
2023-04-27T10:04:10.057Z,101959.88
2023-04-27T10:06:59.728Z,101959.47
2023-04-27T10:09:30.517Z,101961.44
2023-04-27T10:12:16.044Z,101958.50
2023-04-27T10:14:52.035Z,101956.84
2023-04-27T10:17:20.355Z,101950.88
2023-04-27T10:19:57.961Z,101954.63
2023-04-27T10:22:39.269Z,101965.81
2023-04-27T10:25:17.385Z,101963.78
2023-04-27T10:27:50.825Z,101962.97
2023-04-27T10:30:20.273Z,101961.97
2023-04-27T10:32:52.585Z,101969.66
2023-04-27T10:35:21.578Z,101969.66
2023-04-27T10:37:49.374Z,101965.28
2023-04-27T10:40:19.061Z,101947.44
2023-04-27T10:42:49.621Z,101962.59
2023-04-27T10:45:30.926Z,101939.19
2023-04-27T10:48:01.872Z,101934.63
2023-04-27T10:50:29.861Z,101935.06
2023-04-27T10:53:02.554Z,101940.06
2023-04-27T10:55:31.152Z,101929.06
2023-04-27T10:58:01.435Z,101932.00
2023-04-27T11:00:30.587Z,101916.47
2023-04-27T11:03:10.674Z,101926.25
2023-04-27T11:05:38.763Z,101917.78
2023-04-27T11:08:08.336Z,101913.25
2023-04-27T11:10:37.092Z,101912.22
2023-04-27T11:13:11.380Z,101911.38
2023-04-27T11:15:47.077Z,101900.81
2023-04-27T11:18:15.617Z,101897.50
2023-04-27T11:20:44.694Z,101900.00
2023-04-27T11:23:12.801Z,101891.69
2023-04-27T11:25:40.602Z,101904.13
2023-04-27T11:28:19.552Z,101903.53
2023-04-27T11:30:47.740Z,101891.91
2023-04-27T11:33:15.947Z,101894.38
2023-04-27T11:35:43.722Z,101903.91
2023-04-27T11:38:17.957Z,101895.63
2023-04-27T11:40:46.023Z,101882.78
2023-04-27T11:43:15.327Z,101891.47
2023-04-27T11:45:45.644Z,101887.94
2023-04-27T11:48:16.667Z,101888.56
2023-04-27T11:50:48.340Z,101878.00
2023-04-27T11:53:18.568Z,101884.41
2023-04-27T11:55:53.502Z,101891.47
2023-04-27T11:58:22.368Z,101888.97
2023-04-27T12:00:51.452Z,101892.94
2023-04-27T12:03:19.455Z,101890.03
2023-04-27T12:05:51.209Z,101877.16
2023-04-27T12:08:19.105Z,101878.81
2023-04-27T12:10:47.712Z,101886.91
2023-04-27T12:13:15.472Z,101876.34
2023-04-27T12:15:43.472Z,101858.09
2023-04-27T12:18:12.607Z,101861.59
2023-04-27T12:20:40.362Z,101867.19
2023-04-27T12:23:08.059Z,101870.91
2023-04-27T12:25:36.386Z,101863.84
2023-04-27T12:28:04.267Z,101867.38
2023-04-27T12:30:32.015Z,101863.81
2023-04-27T12:33:00.823Z,101855.50
2023-04-27T12:35:32.070Z,101855.50
2023-04-27T12:37:59.927Z,101851.56
2023-04-27T12:40:27.686Z,101843.25
2023-04-27T12:42:55.452Z,101850.50
2023-04-27T12:45:23.197Z,101852.56
2023-04-27T12:48:01.804Z,101854.00
2023-04-27T12:50:33.608Z,101848.63
2023-04-27T12:53:01.362Z,101856.28
2023-04-27T12:55:33.013Z,101845.06
2023-04-27T12:58:02.583Z,101840.91
2023-04-27T13:00:30.508Z,101847.31
2023-04-27T13:02:59.084Z,101832.75
2023-04-27T13:05:27.875Z,101833.19
2023-04-27T13:07:58.391Z,101837.75
2023-04-27T13:10:26.197Z,101836.09
2023-04-27T13:12:55.395Z,101837.84
2023-04-27T13:15:23.082Z,101838.19
2023-04-27T13:17:53.197Z,101831.84
2023-04-27T13:20:21.314Z,101840.59
2023-04-27T13:22:49.104Z,101830.00
2023-04-27T13:25:19.935Z,101823.13
2023-04-27T13:27:47.646Z,101826.41
2023-04-27T13:30:15.669Z,101809.75
2023-04-27T13:32:43.389Z,101815.56
2023-04-27T13:35:11.328Z,101802.69
2023-04-27T13:37:40.019Z,101804.31
2023-04-27T13:40:10.897Z,101801.00
2023-04-27T13:42:40.870Z,101798.31
2023-04-27T13:45:09.365Z,101804.06
2023-04-27T13:47:37.706Z,101806.94
2023-04-27T13:50:07.468Z,101794.03
2023-04-27T13:52:36.019Z,101792.16
2023-04-27T13:55:04.139Z,101791.06
2023-04-27T13:57:32.059Z,101780.03
2023-04-27T14:00:01.736Z,101777.38
2023-04-27T14:02:30.953Z,101772.22
2023-04-27T14:04:59.905Z,101764.38
2023-04-27T14:07:27.731Z,101761.19
2023-04-27T14:09:55.426Z,101762.63
2023-04-27T14:12:23.148Z,101759.19
2023-04-27T14:14:50.901Z,101764.91
2023-04-27T14:17:20.001Z,101750.63
2023-04-27T14:19:47.708Z,101745.59
2023-04-27T14:22:15.808Z,101745.19
2023-04-27T14:24:43.570Z,101741.81
2023-04-27T14:27:11.356Z,101734.25
2023-04-27T14:29:39.073Z,101730.75
2023-04-27T14:32:06.906Z,101728.72
2023-04-27T14:34:36.584Z,101739.09
2023-04-27T14:37:04.395Z,101718.28
2023-04-27T14:39:32.116Z,101726.63
2023-04-27T14:41:59.873Z,101731.50
2023-04-27T14:44:27.596Z,101725.19
2023-04-27T14:46:55.477Z,101709.47
2023-04-27T14:49:23.263Z,101707.44
2023-04-27T14:51:52.327Z,101704.81
2023-04-27T14:54:20.041Z,101697.16
2023-04-27T14:56:47.804Z,101698.19
2023-04-27T14:59:23.052Z,101699.41
2023-04-27T15:01:51.085Z,101697.09
2023-04-27T15:04:19.109Z,101707.44
2023-04-27T15:06:46.971Z,101703.47
2023-04-27T15:09:16.271Z,101707.16
2023-04-27T15:11:44.090Z,101708.06
2023-04-27T15:14:12.170Z,101715.72
2023-04-27T15:16:39.990Z,101708.91
2023-04-27T15:19:07.883Z,101717.84
2023-04-27T15:21:35.705Z,101712.41
2023-04-27T15:24:03.481Z,101705.75
2023-04-27T15:26:32.539Z,101699.34
2023-04-27T15:29:00.821Z,101706.34
2023-04-27T15:31:28.547Z,101705.28
2023-04-27T15:33:56.294Z,101706.13
2023-04-27T15:36:26.688Z,101710.69
2023-04-27T15:38:54.527Z,101695.53
2023-04-27T15:41:22.225Z,101690.94
2023-04-27T15:43:51.893Z,101693.66
2023-04-27T15:46:19.972Z,101688.84
2023-04-27T15:48:47.717Z,101680.94
2023-04-27T15:51:15.448Z,101679.31
2023-04-27T15:53:43.228Z,101678.25
2023-04-27T15:56:10.993Z,101675.31
2023-04-27T15:58:38.725Z,101671.78
2023-04-27T16:01:08.547Z,101675.31
2023-04-27T16:03:37.798Z,101670.97
2023-04-27T16:06:06.116Z,101664.50
2023-04-27T16:08:33.810Z,101662.63
2023-04-27T16:11:01.775Z,101660.75
2023-04-27T16:13:29.566Z,101647.00
2023-04-27T16:15:57.264Z,101648.66
2023-04-27T16:18:26.426Z,101640.75
2023-04-27T16:20:54.150Z,101637.22
2023-04-27T16:23:22.057Z,101641.81
2023-04-27T16:25:49.879Z,101640.75
2023-04-27T16:28:18.042Z,101629.94
2023-04-27T16:30:45.974Z,101622.66
2023-04-27T16:33:13.849Z,101619.72
2023-04-27T16:35:43.007Z,101618.91
2023-04-27T16:38:10.797Z,101616.19
2023-04-27T16:40:38.522Z,101614.53
2023-04-27T16:43:06.281Z,101609.97
2023-04-27T16:45:35.116Z,101609.97
2023-04-27T16:48:03.361Z,101605.84
2023-04-27T16:50:31.648Z,101607.50
2023-04-27T16:53:07.005Z,101614.78
2023-04-27T16:55:35.027Z,101609.38
2023-04-27T16:58:02.890Z,101600.88
2023-04-27T17:00:30.652Z,101595.47
2023-04-27T17:02:58.460Z,101590.06
2023-04-27T17:05:26.943Z,101586.78
2023-04-27T17:07:54.681Z,101583.16
2023-04-27T17:10:24.078Z,101584.81
2023-04-27T17:12:52.646Z,101578.28
2023-04-27T17:15:20.533Z,101586.81
2023-04-27T17:17:48.275Z,101571.53
2023-04-27T17:20:16.008Z,101577.94
2023-04-27T17:22:43.720Z,101584.09
2023-04-27T17:25:11.596Z,101586.25
2023-04-27T17:27:40.879Z,101581.53
2023-04-27T17:30:09.619Z,101583.50
2023-04-27T17:32:37.412Z,101580.56
2023-04-27T17:35:05.591Z,101576.59
2023-04-27T17:37:33.299Z,101563.75
2023-04-27T17:40:01.019Z,101560.44
2023-04-27T17:42:28.728Z,101554.69
2023-04-27T17:44:57.804Z,101557.38
2023-04-27T17:47:25.753Z,101554.41
2023-04-27T17:49:53.458Z,101562.06
2023-04-27T17:52:21.133Z,101557.56
2023-04-27T17:54:49.244Z,101559.31
2023-04-27T17:57:17.001Z,101561.91
2023-04-27T17:59:45.019Z,101560.47
2023-04-27T18:02:14.160Z,101555.53
2023-04-27T18:04:41.942Z,101547.88
2023-04-27T18:07:09.757Z,101544.56
2023-04-27T18:09:37.630Z,101550.44
2023-04-27T18:12:10.799Z,101541.16
2023-04-27T18:14:38.816Z,101542.19
2023-04-27T18:17:06.807Z,101545.13
2023-04-27T18:19:36.051Z,101550.78
2023-04-27T18:22:03.791Z,101545.81
2023-04-27T18:24:31.443Z,101544.38
2023-04-27T18:27:00.025Z,101542.72
2023-04-27T18:29:27.752Z,101540.47
2023-04-27T18:31:56.923Z,101546.13
2023-04-27T18:34:24.807Z,101544.47
2023-04-27T18:36:53.890Z,101546.81
2023-04-27T18:39:22.088Z,101539.84
2023-04-27T18:41:49.829Z,101556.19
2023-04-27T18:44:17.775Z,101555.38
2023-04-27T18:46:46.163Z,101562.88
2023-04-27T18:49:14.159Z,101560.41
2023-04-27T18:51:42.009Z,101567.69
2023-04-27T18:54:11.143Z,101575.00
2023-04-27T18:56:38.894Z,101574.38
2023-04-27T18:59:06.653Z,101568.16
2023-04-27T19:01:34.454Z,101568.38
2023-04-27T19:04:02.555Z,101572.13
2023-04-27T19:06:31.304Z,101575.06
2023-04-27T19:08:59.061Z,101567.19
2023-04-27T19:11:28.847Z,101559.31
2023-04-27T19:13:57.446Z,101556.59
2023-04-27T19:16:25.398Z,101543.31
2023-04-27T19:18:53.244Z,101533.56
2023-04-27T19:21:21.070Z,101542.72
2023-04-27T19:23:48.774Z,101545.66
2023-04-27T19:26:16.521Z,101545.41
2023-04-27T19:28:45.609Z,101552.09
2023-04-27T19:31:13.398Z,101545.88
2023-04-27T19:33:46.661Z,101544.47
2023-04-27T19:36:15.039Z,101547.16
2023-04-27T19:38:42.784Z,101539.28
2023-04-27T19:41:10.694Z,101551.13
2023-04-27T19:43:38.424Z,101547.84
2023-04-27T19:46:07.556Z,101557.81
2023-04-27T19:48:35.351Z,101546.41
2023-04-27T19:51:03.122Z,101546.66
2023-04-27T19:53:30.857Z,101545.81
2023-04-27T19:56:00.682Z,101539.59
2023-04-27T19:58:28.658Z,101537.94
2023-04-27T20:00:56.367Z,101541.69
2023-04-27T20:03:25.590Z,101538.38
2023-04-27T20:05:53.664Z,101539.44
2023-04-27T20:08:21.627Z,101530.78
2023-04-27T20:10:49.438Z,101531.00
2023-04-27T20:13:17.265Z,101533.69
2023-04-27T20:15:45.087Z,101540.16
2023-04-27T20:18:13.068Z,101531.44
2023-04-27T20:20:42.872Z,101526.03
2023-04-27T20:23:10.630Z,101525.69
2023-04-27T20:25:38.354Z,101525.44
2023-04-27T20:28:06.285Z,101525.69
2023-04-27T20:30:33.981Z,101528.38
2023-04-27T20:33:03.754Z,101519.66
2023-04-27T20:35:32.204Z,101509.09
2023-04-27T20:38:01.952Z,101503.91
2023-04-27T20:40:29.783Z,101493.09
2023-04-27T20:42:57.507Z,101486.28
2023-04-27T20:45:25.424Z,101477.13
2023-04-27T20:47:53.262Z,101476.53
2023-04-27T20:50:21.105Z,101482.97
2023-04-27T20:52:48.811Z,101472.19
2023-04-27T20:55:17.854Z,101461.59
2023-04-27T20:57:45.673Z,101457.25
2023-04-27T21:00:15.396Z,101456.44
2023-04-27T21:02:43.238Z,101474.50
2023-04-27T21:05:11.508Z,101460.41
2023-04-27T21:07:39.269Z,101451.47
2023-04-27T21:10:08.298Z,101443.84
2023-04-27T21:12:37.342Z,101440.31
2023-04-27T21:15:05.524Z,101429.72
2023-04-27T21:17:33.368Z,101424.56
2023-04-27T21:20:01.164Z,101423.97
2023-04-27T21:22:28.958Z,101423.13
2023-04-27T21:24:56.646Z,101423.59
2023-04-27T21:27:25.057Z,101420.88
2023-04-27T21:29:54.299Z,101411.97
2023-04-27T21:32:22.017Z,101407.63
2023-04-27T21:34:49.746Z,101399.97
2023-04-27T21:37:17.444Z,101388.34
2023-04-27T21:39:45.209Z,101388.56
2023-04-27T21:42:12.887Z,101386.91
2023-04-27T21:44:40.534Z,101387.16
2023-04-27T21:47:09.659Z,101386.31
2023-04-27T21:49:37.391Z,101385.72
2023-04-27T21:52:05.448Z,101378.69
2023-04-27T21:54:33.192Z,101377.84
2023-04-27T21:57:00.893Z,101381.59
2023-04-27T21:59:28.628Z,101379.97
2023-04-27T22:01:56.631Z,101375.38
2023-04-27T22:04:26.153Z,101369.84
2023-04-27T22:06:54.295Z,101372.91
2023-04-27T22:09:21.999Z,101375.59
2023-04-27T22:11:49.728Z,101369.38
2023-04-27T22:14:17.630Z,101370.44
2023-04-27T22:16:45.442Z,101361.75
2023-04-27T22:19:13.260Z,101367.97
2023-04-27T22:21:42.349Z,101369.00
2023-04-27T22:24:10.066Z,101360.31
2023-04-27T22:26:37.817Z,101361.97
2023-04-27T22:29:05.523Z,101361.38
2023-04-27T22:31:33.453Z,101354.31
2023-04-27T22:34:01.281Z,101352.66
2023-04-27T22:36:29.145Z,101341.28
2023-04-27T22:38:58.297Z,101343.97
2023-04-27T22:41:26.193Z,101337.97
2023-04-27T22:43:53.944Z,101331.75
2023-04-27T22:46:23.156Z,101323.06
2023-04-27T22:48:52.964Z,101326.00
2023-04-27T22:51:21.798Z,101321.63
2023-04-27T22:53:49.760Z,101323.72
2023-04-27T22:56:18.854Z,101316.66
2023-04-27T22:58:46.848Z,101319.59
2023-04-27T23:01:14.665Z,101319.59
2023-04-27T23:03:42.581Z,101327.91
2023-04-27T23:06:14.272Z,101319.00
2023-04-27T23:08:44.752Z,101320.88
2023-04-27T23:11:15.429Z,101321.09
2023-04-27T23:13:44.573Z,101318.41
2023-04-27T23:16:14.718Z,101314.06
2023-04-27T23:18:42.790Z,101302.66
2023-04-27T23:21:11.616Z,101312.63
2023-04-27T23:23:39.385Z,101315.56
2023-04-27T23:26:14.110Z,101312.03
2023-04-27T23:28:41.992Z,101311.22
2023-04-27T23:31:11.745Z,101308.97
2023-04-27T23:33:39.535Z,101306.03
2023-04-27T23:36:07.820Z,101309.78
2023-04-27T23:38:35.531Z,101301.09
2023-04-27T23:41:03.295Z,101302.75
2023-04-27T23:43:31.692Z,101291.13
2023-04-27T23:45:59.427Z,101281.38
2023-04-27T23:48:28.544Z,101277.03
2023-04-27T23:51:02.808Z,101271.88
2023-04-27T23:53:31.496Z,101263.78
2023-04-27T23:55:59.229Z,101259.66
2023-04-27T23:58:27.338Z,101258.84
